Time;durP1;ratioP1;P1;durP2;ratioP2;P2;SDS_P1;SDS_P2;PMS_P1;PMS_P2;Temp;Humidity;BMP_temperature;BMP_pressure;BME280_temperature;BME280_humidity;BME280_pressure;Samples;Min_cycle;Max_cycle;Signal;HPM_P1;HPM_P2
2024/01/10 00:01:50;;;;;;;40.83;18.65;;;-3.10;99.90;;;;;;4972635;28;20030;-72
2024/01/10 00:04:16;;;;;;;42.33;19.48;;;-3.10;99.90;;;;;;4974753;28;20034;-72
2024/01/10 00:06:42;;;;;;;46.38;19.83;;;-3.10;99.90;;;;;;4970174;28;20023;-74
2024/01/10 00:09:08;;;;;;;44.83;17.75;;;-3.10;99.90;;;;;;4973046;28;20530;-73
2024/01/10 00:11:34;;;;;;;49.38;18.90;;;-3.10;99.90;;;;;;4974809;28;20097;-73
2024/01/10 00:13:59;;;;;;;45.83;19.77;;;-3.10;99.90;;;;;;4969929;28;20493;-72
2024/01/10 00:16:28;;;;;;;44.50;19.25;;;-3.00;99.90;;;;;;4967764;28;20027;-72
2024/01/10 00:18:53;;;;;;;45.83;19.42;;;-3.00;99.90;;;;;;4972202;28;20114;-73
2024/01/10 00:21:19;;;;;;;41.13;17.92;;;-3.00;99.90;;;;;;4968120;28;20481;-72
2024/01/10 00:23:45;;;;;;;38.78;18.70;;;-3.10;99.90;;;;;;4970197;28;20498;-72
2024/01/10 00:26:10;;;;;;;40.55;17.45;;;-3.00;99.90;;;;;;4973275;28;20055;-71
2024/01/10 00:28:36;;;;;;;44.05;19.75;;;-3.10;99.90;;;;;;4971897;28;20413;-72
2024/01/10 00:31:01;;;;;;;41.38;16.83;;;-3.10;99.90;;;;;;4974698;28;20065;-72
2024/01/10 00:33:27;;;;;;;39.10;17.45;;;-3.00;99.90;;;;;;4972215;28;20031;-72
2024/01/10 00:35:53;;;;;;;43.60;18.15;;;-3.00;99.90;;;;;;4970551;28;20109;-72
2024/01/10 00:38:18;;;;;;;47.03;19.65;;;-3.00;99.90;;;;;;4967863;28;20041;-73
2024/01/10 00:40:44;;;;;;;39.78;20.05;;;-3.00;99.90;;;;;;4967975;28;20165;-72
2024/01/10 00:43:09;;;;;;;43.00;18.17;;;-3.00;99.90;;;;;;4972078;28;20042;-72
2024/01/10 00:45:35;;;;;;;41.72;17.40;;;-2.90;99.90;;;;;;4971605;28;20027;-72
2024/01/10 00:48:00;;;;;;;41.15;18.55;;;-2.90;99.90;;;;;;4973697;28;20046;-72
2024/01/10 00:50:26;;;;;;;39.05;17.85;;;-2.90;99.90;;;;;;4975173;28;20045;-72
2024/01/10 00:52:52;;;;;;;39.15;16.90;;;-2.90;99.90;;;;;;4978695;28;20489;-71
2024/01/10 00:55:18;;;;;;;42.60;18.08;;;-2.90;99.90;;;;;;4970775;28;20039;-70
2024/01/10 00:57:43;;;;;;;44.15;18.80;;;-2.90;99.90;;;;;;4975829;28;20120;-72
2024/01/10 01:00:10;;;;;;;45.42;18.70;;;-3.00;99.90;;;;;;4972456;28;20030;-72
2024/01/10 01:02:36;;;;;;;37.03;17.77;;;-2.90;99.90;;;;;;4977217;28;20113;-72
2024/01/10 01:05:02;;;;;;;39.55;18.08;;;-2.90;99.90;;;;;;4974114;28;20540;-72
2024/01/10 01:07:28;;;;;;;38.38;17.60;;;-2.90;99.90;;;;;;4969007;28;20031;-73
2024/01/10 01:09:54;;;;;;;39.97;16.60;;;-2.90;99.90;;;;;;4974630;28;20097;-72
2024/01/10 01:12:19;;;;;;;38.90;18.08;;;-2.90;99.90;;;;;;4975391;28;20238;-73
2024/01/10 01:14:45;;;;;;;41.38;17.33;;;-2.90;99.90;;;;;;4973336;28;20035;-73
2024/01/10 01:17:11;;;;;;;41.58;18.23;;;-2.90;99.90;;;;;;4971019;28;20023;-73
2024/01/10 01:19:36;;;;;;;42.08;18.85;;;-2.90;99.90;;;;;;4973248;28;20045;-72
2024/01/10 01:22:02;;;;;;;40.38;17.45;;;-2.90;99.90;;;;;;4973581;28;20032;-72
2024/01/10 01:24:28;;;;;;;37.05;16.35;;;-3.00;99.90;;;;;;4972997;28;20023;-72
2024/01/10 01:26:53;;;;;;;39.67;17.50;;;-3.00;99.90;;;;;;4977655;28;20050;-72
2024/01/10 01:29:20;;;;;;;40.42;17.88;;;-3.00;99.90;;;;;;4974515;28;20500;-72
2024/01/10 01:31:46;;;;;;;37.90;18.02;;;-3.00;99.90;;;;;;4969993;28;20049;-72
2024/01/10 01:34:12;;;;;;;42.47;19.02;;;-3.00;99.90;;;;;;4974408;28;20022;-72
2024/01/10 01:36:37;;;;;;;42.45;18.15;;;-3.00;99.90;;;;;;4970069;28;20023;-72
2024/01/10 01:39:03;;;;;;;47.05;20.05;;;-3.10;99.90;;;;;;4971188;28;20669;-72
2024/01/10 01:41:29;;;;;;;42.53;17.73;;;-3.00;99.90;;;;;;4973397;28;20094;-73
2024/01/10 01:43:54;;;;;;;44.15;18.48;;;-3.00;99.90;;;;;;4974418;28;20035;-73
2024/01/10 01:46:21;;;;;;;36.08;17.80;;;-3.00;99.90;;;;;;4968323;28;20557;-72
2024/01/10 01:48:47;;;;;;;40.95;18.02;;;-3.00;99.90;;;;;;4988225;28;20137;-72
2024/01/10 01:51:14;;;;;;;47.97;19.45;;;-3.00;99.90;;;;;;4971839;28;20109;-73
2024/01/10 01:53:41;;;;;;;42.15;17.95;;;-2.90;99.90;;;;;;4971296;28;20046;-72
2024/01/10 01:56:08;;;;;;;42.20;17.73;;;-2.90;99.90;;;;;;4973752;28;20110;-73
2024/01/10 01:58:36;;;;;;;37.13;17.65;;;-2.90;99.90;;;;;;4975895;28;20449;-73
2024/01/10 02:01:03;;;;;;;36.33;16.85;;;-2.90;99.90;;;;;;4975233;28;20027;-73
2024/01/10 02:03:31;;;;;;;42.55;17.70;;;-2.90;99.90;;;;;;4970726;28;20035;-73
2024/01/10 02:05:57;;;;;;;40.65;17.70;;;-2.90;99.90;;;;;;4971804;28;20486;-72
2024/01/10 02:08:23;;;;;;;38.67;17.70;;;-2.90;99.90;;;;;;4977109;28;20015;-72
2024/01/10 02:10:49;;;;;;;39.00;18.02;;;-3.00;99.90;;;;;;4971766;28;20087;-74
2024/01/10 02:13:15;;;;;;;43.20;16.40;;;-3.00;99.90;;;;;;4976873;28;20027;-73
2024/01/10 02:15:41;;;;;;;44.47;18.95;;;-3.00;99.90;;;;;;4971990;28;20109;-72
2024/01/10 02:18:07;;;;;;;38.25;18.15;;;-3.00;99.90;;;;;;4973113;28;20475;-72
2024/01/10 02:20:33;;;;;;;43.60;19.27;;;-3.00;99.90;;;;;;4971641;28;20023;-72
2024/01/10 02:22:58;;;;;;;44.45;18.67;;;-2.90;99.90;;;;;;4976337;28;20196;-72
2024/01/10 02:25:24;;;;;;;37.13;16.77;;;-2.90;99.90;;;;;;4969359;28;20185;-72
2024/01/10 02:27:50;;;;;;;45.17;19.48;;;-2.90;99.90;;;;;;4971251;28;20035;-72
2024/01/10 02:30:15;;;;;;;41.97;16.95;;;-2.80;99.90;;;;;;4975883;28;20026;-72
2024/01/10 02:32:41;;;;;;;39.60;16.58;;;-2.80;99.90;;;;;;4968740;28;20059;-73
2024/01/10 02:35:08;;;;;;;40.03;17.92;;;-2.80;99.90;;;;;;4969833;28;20113;-72
2024/01/10 02:37:33;;;;;;;40.72;17.00;;;-2.80;99.90;;;;;;4971296;28;20029;-74
2024/01/10 02:39:59;;;;;;;39.85;16.83;;;-2.80;99.90;;;;;;4971665;28;20039;-72
2024/01/10 02:42:27;;;;;;;33.80;16.20;;;-2.80;99.90;;;;;;4969283;28;20360;-73
2024/01/10 02:44:53;;;;;;;40.40;17.58;;;-2.80;99.90;;;;;;4969781;28;20086;-74
2024/01/10 02:47:18;;;;;;;42.42;18.30;;;-2.80;99.90;;;;;;4971220;28;20027;-73
2024/01/10 02:49:44;;;;;;;41.28;17.45;;;-2.80;99.90;;;;;;4971165;28;20023;-73
2024/01/10 02:52:09;;;;;;;40.83;18.15;;;-2.70;99.90;;;;;;4971855;28;20110;-74
2024/01/10 02:54:35;;;;;;;42.38;17.92;;;-2.70;99.90;;;;;;4969645;28;20038;-73
2024/01/10 02:57:01;;;;;;;44.65;18.88;;;-2.70;99.90;;;;;;4971677;28;20022;-71
2024/01/10 02:59:26;;;;;;;40.20;17.98;;;-2.70;99.90;;;;;;4970109;28;20031;-74
2024/01/10 03:01:52;;;;;;;38.13;17.50;;;-2.80;99.90;;;;;;4969979;28;20047;-73
2024/01/10 03:04:18;;;;;;;40.97;17.73;;;-2.70;99.90;;;;;;4969132;28;20023;-73
2024/01/10 03:06:43;;;;;;;38.70;16.55;;;-2.70;99.90;;;;;;4967536;28;20023;-73
2024/01/10 03:09:09;;;;;;;37.33;18.20;;;-2.70;99.90;;;;;;4969512;28;20065;-72
2024/01/10 03:11:35;;;;;;;39.22;16.83;;;-2.70;99.90;;;;;;4975385;28;20790;-74
2024/01/10 03:14:04;;;;;;;37.60;17.05;;;-2.70;99.90;;;;;;4972560;28;20023;-73
2024/01/10 03:16:30;;;;;;;42.63;17.75;;;-2.70;99.90;;;;;;4970824;28;20149;-73
2024/01/10 03:18:56;;;;;;;42.88;16.92;;;-2.70;99.90;;;;;;4969772;28;20023;-73
2024/01/10 03:21:24;;;;;;;40.78;17.08;;;-2.70;99.90;;;;;;4971168;28;20038;-72
2024/01/10 03:23:57;;;;;;;36.42;16.80;;;-2.70;99.90;;;;;;4971445;28;20027;-73
2024/01/10 03:26:23;;;;;;;44.38;18.40;;;-2.70;99.90;;;;;;4970068;28;20031;-73
2024/01/10 03:28:49;;;;;;;35.83;16.58;;;-2.70;99.90;;;;;;4973175;28;20015;-73
2024/01/10 03:31:15;;;;;;;34.92;16.48;;;-2.70;99.90;;;;;;4973059;28;20058;-73
2024/01/10 03:33:41;;;;;;;41.45;18.33;;;-2.70;99.90;;;;;;4969987;28;20039;-73
2024/01/10 03:36:09;;;;;;;39.90;18.05;;;-2.70;99.90;;;;;;4972358;28;20034;-73
2024/01/10 03:38:34;;;;;;;40.80;18.35;;;-2.70;99.90;;;;;;4966497;28;20027;-73
2024/01/10 03:41:00;;;;;;;40.90;17.00;;;-2.70;99.90;;;;;;4970683;28;20050;-72
2024/01/10 03:43:25;;;;;;;42.30;17.23;;;-2.70;99.90;;;;;;4989921;28;20533;-73
2024/01/10 03:45:51;;;;;;;38.95;16.23;;;-2.70;99.90;;;;;;4969297;28;20441;-73
2024/01/10 03:48:17;;;;;;;44.13;18.38;;;-2.70;99.90;;;;;;4970912;28;20110;-73
2024/01/10 03:50:42;;;;;;;38.95;17.13;;;-2.70;99.90;;;;;;4974265;28;20018;-72
2024/01/10 03:53:08;;;;;;;35.63;18.30;;;-2.70;99.90;;;;;;4969896;28;20512;-74
2024/01/10 03:55:34;;;;;;;37.78;17.35;;;-2.70;99.90;;;;;;4971540;28;20018;-73
2024/01/10 03:57:59;;;;;;;42.97;17.00;;;-2.70;99.90;;;;;;4970943;28;20034;-72
2024/01/10 04:00:25;;;;;;;42.45;17.02;;;-2.60;99.90;;;;;;4972831;28;20031;-72
2024/01/10 04:02:51;;;;;;;42.90;18.10;;;-2.60;99.90;;;;;;4970248;28;20078;-72
2024/01/10 04:05:18;;;;;;;40.75;17.65;;;-2.60;99.90;;;;;;4975190;28;20382;-72
2024/01/10 04:07:44;;;;;;;37.80;16.88;;;-2.60;99.90;;;;;;4982016;28;20027;-72
2024/01/10 04:10:14;;;;;;;41.97;17.50;;;-2.60;99.90;;;;;;4972584;28;20097;-73
2024/01/10 04:12:45;;;;;;;45.25;18.33;;;-2.60;99.90;;;;;;4970333;28;20398;-72
2024/01/10 04:15:12;;;;;;;40.13;16.80;;;-2.60;99.90;;;;;;4969942;28;20067;-74
2024/01/10 04:17:37;;;;;;;36.58;16.98;;;-2.50;99.90;;;;;;4970443;28;20026;-72
2024/01/10 04:20:04;;;;;;;34.88;15.52;;;-2.50;99.90;;;;;;4972356;28;20027;-73
2024/01/10 04:22:30;;;;;;;38.22;16.05;;;-2.50;99.90;;;;;;4969944;28;20066;-72
2024/01/10 04:25:00;;;;;;;40.78;17.40;;;-2.60;99.90;;;;;;4968910;28;20023;-71
2024/01/10 04:27:26;;;;;;;39.75;16.60;;;-2.60;99.90;;;;;;4967878;28;20049;-73
2024/01/10 04:29:53;;;;;;;39.88;17.20;;;-2.60;99.90;;;;;;4964614;28;20023;-72
2024/01/10 04:32:19;;;;;;;40.22;18.08;;;-2.70;99.90;;;;;;4976089;28;20393;-73
2024/01/10 04:34:44;;;;;;;42.08;17.88;;;-2.70;99.90;;;;;;4972731;28;20031;-72
2024/01/10 04:37:10;;;;;;;40.33;17.20;;;-2.70;99.90;;;;;;4971637;28;20059;-73
2024/01/10 04:39:37;;;;;;;36.45;17.15;;;-2.80;99.90;;;;;;4989952;28;20034;-73
2024/01/10 04:42:03;;;;;;;41.40;16.88;;;-2.80;99.90;;;;;;4973222;28;20026;-72
2024/01/10 04:44:29;;;;;;;38.13;16.65;;;-2.80;99.90;;;;;;4974282;28;20422;-72
2024/01/10 04:46:55;;;;;;;38.38;17.10;;;-2.80;99.90;;;;;;4971263;28;20113;-72
2024/01/10 04:49:20;;;;;;;39.28;17.55;;;-2.80;99.90;;;;;;4976052;28;20030;-72
2024/01/10 04:51:48;;;;;;;38.13;16.48;;;-2.70;99.90;;;;;;4976461;28;20063;-73
2024/01/10 04:54:13;;;;;;;36.05;16.55;;;-2.60;99.90;;;;;;4973649;28;20106;-73
2024/01/10 04:56:39;;;;;;;37.80;16.70;;;-2.60;99.90;;;;;;4974996;28;20159;-73
2024/01/10 04:59:05;;;;;;;38.70;17.45;;;-2.50;99.90;;;;;;4972563;28;20030;-73
2024/01/10 05:01:31;;;;;;;37.22;16.00;;;-2.50;99.90;;;;;;4974630;28;20441;-73
2024/01/10 05:03:57;;;;;;;36.53;15.82;;;-2.40;99.90;;;;;;4971633;28;20015;-72
2024/01/10 05:06:23;;;;;;;38.60;17.27;;;-2.40;99.90;;;;;;4971365;28;20065;-74
2024/01/10 05:08:49;;;;;;;39.97;16.90;;;-2.30;99.90;;;;;;4975535;28;20752;-73
2024/01/10 05:11:16;;;;;;;38.05;16.50;;;-2.30;99.90;;;;;;4975626;28;20037;-73
2024/01/10 05:13:43;;;;;;;40.95;17.92;;;-2.30;99.90;;;;;;4977771;28;20646;-74
2024/01/10 05:16:08;;;;;;;39.13;17.83;;;-2.30;99.90;;;;;;4974728;28;20026;-72
2024/01/10 05:18:34;;;;;;;35.20;18.20;;;-2.30;99.90;;;;;;4973423;28;20097;-73
2024/01/10 05:21:00;;;;;;;43.38;18.88;;;-2.30;99.90;;;;;;4971991;28;20078;-73
2024/01/10 05:23:26;;;;;;;39.08;18.83;;;-2.30;99.90;;;;;;4974679;28;20081;-72
2024/01/10 05:25:51;;;;;;;37.60;17.33;;;-2.30;99.90;;;;;;4974709;28;20023;-73
2024/01/10 05:28:17;;;;;;;39.28;18.73;;;-2.30;99.90;;;;;;4975032;28;20111;-73
2024/01/10 05:30:43;;;;;;;42.65;19.90;;;-2.30;99.90;;;;;;4969660;28;20371;-74
2024/01/10 05:33:10;;;;;;;41.28;18.60;;;-2.30;99.90;;;;;;4976662;28;20053;-74
2024/01/10 05:35:36;;;;;;;44.22;17.83;;;-2.30;99.90;;;;;;4974608;28;20051;-74
2024/01/10 05:38:02;;;;;;;37.13;18.02;;;-2.30;99.90;;;;;;4972704;28;20035;-75
2024/01/10 05:40:30;;;;;;;40.55;18.95;;;-2.30;99.90;;;;;;4974561;28;20030;-74
2024/01/10 05:42:56;;;;;;;40.05;18.75;;;-2.30;99.90;;;;;;4974285;28;20062;-74
2024/01/10 05:45:21;;;;;;;40.97;18.67;;;-2.30;99.90;;;;;;4972137;28;20042;-73
2024/01/10 05:47:48;;;;;;;42.80;18.77;;;-2.30;99.90;;;;;;4972822;28;20370;-74
2024/01/10 05:50:14;;;;;;;39.03;18.65;;;-2.40;99.90;;;;;;4975132;28;20022;-74
2024/01/10 05:52:39;;;;;;;42.33;19.75;;;-2.40;99.90;;;;;;4978782;28;20030;-73
2024/01/10 05:55:08;;;;;;;47.33;19.48;;;-2.40;99.90;;;;;;4976427;28;20031;-73
2024/01/10 05:57:34;;;;;;;38.92;17.95;;;-2.40;99.90;;;;;;4971156;28;20026;-73
2024/01/10 06:00:00;;;;;;;39.95;18.45;;;-2.40;99.90;;;;;;4973701;28;20084;-72
2024/01/10 06:02:27;;;;;;;44.78;18.65;;;-2.50;99.90;;;;;;4973300;28;20549;-72
2024/01/10 06:04:53;;;;;;;36.88;17.55;;;-2.50;99.90;;;;;;4969599;28;20401;-70
2024/01/10 06:07:20;;;;;;;40.55;18.15;;;-2.50;99.90;;;;;;4975449;28;20033;-72
2024/01/10 06:09:46;;;;;;;41.13;18.88;;;-2.50;99.90;;;;;;4974440;28;20011;-73
2024/01/10 06:12:12;;;;;;;42.53;19.45;;;-2.50;99.90;;;;;;4989010;28;20092;-71
2024/01/10 06:14:38;;;;;;;40.45;19.13;;;-2.60;99.90;;;;;;4973379;28;20030;-72
2024/01/10 06:17:03;;;;;;;42.50;18.83;;;-2.60;99.90;;;;;;4968406;28;20039;-72
2024/01/10 06:19:33;;;;;;;43.05;19.33;;;-2.60;99.90;;;;;;4974997;28;20029;-72
2024/01/10 06:21:59;;;;;;;42.28;18.17;;;-2.70;99.90;;;;;;4969960;28;20035;-72
2024/01/10 06:24:26;;;;;;;43.92;18.83;;;-2.70;99.90;;;;;;4973794;28;20073;-72
2024/01/10 06:26:51;;;;;;;40.40;17.52;;;-2.70;99.90;;;;;;4972960;28;20034;-72
2024/01/10 06:29:18;;;;;;;37.03;17.42;;;-2.80;99.90;;;;;;4970476;28;20387;-73
2024/01/10 06:31:44;;;;;;;40.47;18.98;;;-2.80;99.90;;;;;;4967629;28;20058;-71
2024/01/10 06:34:10;;;;;;;40.97;17.88;;;-2.80;99.90;;;;;;4973692;28;20042;-72
2024/01/10 06:36:36;;;;;;;41.17;19.05;;;-2.80;99.90;;;;;;4967335;28;20049;-73
2024/01/10 06:39:02;;;;;;;44.42;17.30;;;-2.80;99.90;;;;;;4972853;28;20053;-73
2024/01/10 06:41:27;;;;;;;39.28;18.00;;;-2.80;99.90;;;;;;4969992;28;20110;-71
2024/01/10 06:43:53;;;;;;;47.95;20.08;;;-2.90;99.90;;;;;;4974787;28;20050;-71
2024/01/10 06:46:20;;;;;;;41.90;19.38;;;-2.90;99.90;;;;;;4974954;28;20023;-71
2024/01/10 06:48:45;;;;;;;38.55;18.13;;;-2.90;99.90;;;;;;4974577;28;20018;-72
2024/01/10 06:51:15;;;;;;;44.05;19.65;;;-2.90;99.90;;;;;;4974858;28;20058;-72
2024/01/10 06:53:41;;;;;;;41.78;18.30;;;-2.90;99.90;;;;;;4974248;28;20030;-71
2024/01/10 06:56:07;;;;;;;41.95;18.38;;;-2.90;99.90;;;;;;4974208;28;20042;-72
2024/01/10 06:58:33;;;;;;;36.83;16.77;;;-2.80;99.90;;;;;;4971426;28;20054;-73
2024/01/10 07:01:04;;;;;;;40.10;19.45;;;-2.80;99.90;;;;;;4976200;28;20115;-72
2024/01/10 07:03:31;;;;;;;40.42;18.17;;;-2.70;99.90;;;;;;4970713;28;20041;-73
2024/01/10 07:05:57;;;;;;;43.33;18.13;;;-2.70;99.90;;;;;;4973551;28;20098;-72
2024/01/10 07:08:22;;;;;;;46.22;20.00;;;-2.70;99.90;;;;;;4970386;28;20378;-72
2024/01/10 07:10:48;;;;;;;40.72;18.60;;;-2.70;99.90;;;;;;4970370;28;20023;-71
2024/01/10 07:13:13;;;;;;;41.13;19.10;;;-2.70;99.90;;;;;;4972620;28;20093;-72
2024/01/10 07:15:39;;;;;;;43.50;18.63;;;-2.70;99.90;;;;;;4967180;28;20425;-72
2024/01/10 07:18:06;;;;;;;47.90;19.45;;;-2.70;99.90;;;;;;4968017;28;20022;-72
2024/01/10 07:20:32;;;;;;;47.92;19.55;;;-2.70;99.90;;;;;;4969966;28;20027;-73
2024/01/10 07:22:59;;;;;;;43.53;18.35;;;-2.70;99.90;;;;;;4968648;28;20027;-73
2024/01/10 07:25:25;;;;;;;42.65;20.23;;;-2.70;99.90;;;;;;4970259;28;20045;-73
2024/01/10 07:27:51;;;;;;;43.40;19.05;;;-2.70;99.90;;;;;;4973471;28;20054;-73
2024/01/10 07:30:17;;;;;;;42.47;20.02;;;-2.80;99.90;;;;;;4972250;28;20086;-73
2024/01/10 07:32:44;;;;;;;44.80;18.77;;;-2.80;99.90;;;;;;4971204;28;20110;-73
2024/01/10 07:35:10;;;;;;;43.08;19.27;;;-2.80;99.90;;;;;;4974482;28;20122;-73
2024/01/10 07:37:41;;;;;;;43.88;18.60;;;-2.80;99.90;;;;;;4964580;28;20470;-74
2024/01/10 07:40:08;;;;;;;44.78;18.52;;;-2.80;99.90;;;;;;4966525;28;20595;-73
2024/01/10 07:42:34;;;;;;;43.05;19.88;;;-2.80;99.90;;;;;;4964829;28;20030;-72
2024/01/10 07:45:04;;;;;;;42.95;19.35;;;-2.80;99.90;;;;;;4963217;28;20500;-72
2024/01/10 07:47:30;;;;;;;40.67;17.98;;;-2.80;99.90;;;;;;4965570;28;20030;-72
2024/01/10 07:49:56;;;;;;;53.13;24.10;;;-2.80;99.90;;;;;;4964584;28;20047;-70
2024/01/10 07:52:22;;;;;;;44.80;20.45;;;-2.70;99.90;;;;;;4963786;28;20127;-73
2024/01/10 07:54:48;;;;;;;44.90;20.15;;;-2.70;99.90;;;;;;4983535;28;20035;-71
2024/01/10 07:57:13;;;;;;;45.15;19.92;;;-2.80;99.90;;;;;;4966931;28;20037;-73
2024/01/10 07:59:39;;;;;;;46.08;20.90;;;-2.80;99.90;;;;;;4968187;28;20038;-74
2024/01/10 08:02:05;;;;;;;45.30;19.85;;;-2.80;99.90;;;;;;4965833;28;20035;-73
2024/01/10 08:04:30;;;;;;;37.63;17.70;;;-2.80;99.90;;;;;;4967156;28;20454;-71
2024/01/10 08:06:56;;;;;;;48.78;19.92;;;-2.80;99.90;;;;;;4968354;28;20026;-72
2024/01/10 08:09:26;;;;;;;41.78;19.67;;;-2.80;99.90;;;;;;4973047;28;20023;-73
2024/01/10 08:11:51;;;;;;;41.58;20.23;;;-2.90;99.90;;;;;;4965006;28;20560;-73
2024/01/10 08:14:17;;;;;;;41.83;18.13;;;-2.90;99.90;;;;;;4973474;28;20039;-72
2024/01/10 08:16:42;;;;;;;48.50;19.15;;;-2.90;99.90;;;;;;4972501;28;20054;-72
2024/01/10 08:19:08;;;;;;;40.53;18.92;;;-2.80;99.90;;;;;;4972476;28;20039;-72
2024/01/10 08:21:34;;;;;;;41.85;18.88;;;-2.80;99.90;;;;;;4968146;28;20570;-73
2024/01/10 08:24:02;;;;;;;47.58;20.40;;;-2.80;99.90;;;;;;4971827;28;20050;-73
2024/01/10 08:26:28;;;;;;;44.05;20.95;;;-2.80;99.90;;;;;;4970024;28;20065;-73
2024/01/10 08:28:54;;;;;;;48.40;20.10;;;-2.70;99.90;;;;;;4970077;28;20086;-72
2024/01/10 08:31:19;;;;;;;41.13;19.75;;;-2.70;99.90;;;;;;4969451;28;20158;-72
2024/01/10 08:33:46;;;;;;;47.00;21.15;;;-2.70;99.90;;;;;;4970530;28;20105;-71
2024/01/10 08:36:12;;;;;;;46.78;19.92;;;-2.70;99.90;;;;;;4973166;28;20030;-73
2024/01/10 08:38:38;;;;;;;52.78;21.15;;;-2.70;99.90;;;;;;4971384;28;20030;-72
2024/01/10 08:41:04;;;;;;;40.58;19.13;;;-2.70;99.90;;;;;;4973048;28;20490;-73
2024/01/10 08:43:30;;;;;;;46.35;19.55;;;-2.70;99.90;;;;;;4974460;28;20029;-70
2024/01/10 08:45:57;;;;;;;48.05;19.95;;;-2.80;99.90;;;;;;4971421;28;20027;-71
2024/01/10 08:48:23;;;;;;;45.97;21.10;;;-2.70;99.90;;;;;;4972738;28;20397;-72
2024/01/10 08:50:50;;;;;;;52.47;21.83;;;-2.70;99.90;;;;;;4971445;28;20066;-73
2024/01/10 08:53:16;;;;;;;53.38;20.58;;;-2.60;99.90;;;;;;4970774;28;20451;-72
2024/01/10 08:55:41;;;;;;;44.60;19.83;;;-2.60;99.90;;;;;;4968481;28;20041;-72
2024/01/10 08:58:07;;;;;;;45.05;20.48;;;-2.60;99.90;;;;;;4970465;28;20473;-73
2024/01/10 09:00:33;;;;;;;44.85;20.33;;;-2.50;99.90;;;;;;4978401;28;20086;-73
2024/01/10 09:03:00;;;;;;;48.10;19.65;;;-2.50;99.90;;;;;;4963247;28;20031;-74
2024/01/10 09:05:26;;;;;;;54.05;22.30;;;-2.40;99.90;;;;;;4970664;28;20106;-73
2024/01/10 09:07:53;;;;;;;43.50;21.15;;;-2.40;99.90;;;;;;4977615;28;20106;-73
2024/01/10 09:10:19;;;;;;;43.88;21.67;;;-2.40;99.90;;;;;;4985182;28;20478;-73
2024/01/10 09:12:46;;;;;;;48.70;22.60;;;-2.40;99.90;;;;;;4971816;28;20011;-72
2024/01/10 09:15:13;;;;;;;43.95;23.20;;;-2.40;99.90;;;;;;4976864;28;20474;-72
2024/01/10 09:17:42;;;;;;;48.90;22.58;;;-2.30;99.90;;;;;;4970928;28;20118;-72
2024/01/10 09:20:08;;;;;;;53.67;23.38;;;-2.30;99.90;;;;;;4971837;28;20038;-72
2024/01/10 09:22:34;;;;;;;54.53;23.95;;;-2.20;99.90;;;;;;4970658;28;20429;-74
2024/01/10 09:25:03;;;;;;;56.17;24.67;;;-2.20;99.90;;;;;;4969629;28;20027;-72
2024/01/10 09:27:30;;;;;;;49.42;22.60;;;-2.10;99.90;;;;;;4969798;28;20050;-72
2024/01/10 09:29:55;;;;;;;50.95;22.42;;;-2.10;99.90;;;;;;4967744;28;20023;-72
2024/01/10 09:32:22;;;;;;;45.42;20.58;;;-2.10;99.90;;;;;;4970493;28;20042;-72
2024/01/10 09:34:47;;;;;;;43.92;20.25;;;-2.00;99.90;;;;;;4971260;28;20090;-72
2024/01/10 09:37:13;;;;;;;44.47;19.75;;;-2.10;99.90;;;;;;4964944;28;20026;-72
2024/01/10 09:39:39;;;;;;;46.63;22.85;;;-2.10;99.90;;;;;;4971034;28;20039;-73
2024/01/10 09:42:06;;;;;;;50.67;22.02;;;-2.10;99.90;;;;;;4972774;28;20035;-72
2024/01/10 09:44:33;;;;;;;47.13;21.55;;;-2.00;99.90;;;;;;4972672;28;20111;-71
2024/01/10 09:46:58;;;;;;;51.72;20.67;;;-2.00;99.90;;;;;;4969838;28;20018;-73
2024/01/10 09:49:25;;;;;;;43.75;22.35;;;-2.00;99.90;;;;;;4972009;28;20022;-72
2024/01/10 09:51:59;;;;;;;42.92;20.58;;;-2.10;99.90;;;;;;4971368;28;20414;-73
2024/01/10 09:54:29;;;;;;;51.13;21.23;;;-2.00;99.90;;;;;;4968150;28;20031;-73
2024/01/10 09:56:55;;;;;;;47.67;21.15;;;-2.00;99.90;;;;;;4968338;28;20041;-73
2024/01/10 09:59:21;;;;;;;47.47;21.88;;;-1.90;99.90;;;;;;4972667;28;20032;-72
2024/01/10 10:01:47;;;;;;;53.05;21.35;;;-1.90;99.90;;;;;;4987009;28;20402;-73
2024/01/10 10:04:15;;;;;;;45.88;20.63;;;-1.90;99.90;;;;;;4970414;28;20030;-73
2024/01/10 10:06:40;;;;;;;46.17;20.58;;;-1.90;99.90;;;;;;4968398;28;20026;-73
2024/01/10 10:09:08;;;;;;;50.88;21.50;;;-1.80;99.90;;;;;;4973735;28;20070;-73
2024/01/10 10:11:33;;;;;;;50.78;22.77;;;-1.80;99.90;;;;;;4969838;28;20113;-72
2024/01/10 10:14:15;;;;;;;42.28;20.77;;;-1.70;99.90;;;;;;4972561;28;20105;-71
2024/01/10 10:16:41;;;;;;;51.42;23.08;;;-1.80;99.90;;;;;;4967830;28;20031;-72
2024/01/10 10:19:07;;;;;;;48.03;22.30;;;-1.80;99.90;;;;;;4967481;28;20035;-72
2024/01/10 10:21:33;;;;;;;49.60;21.45;;;-1.80;99.90;;;;;;4961350;28;20549;-72
2024/01/10 10:24:00;;;;;;;46.22;20.60;;;-1.80;99.90;;;;;;4958419;28;20118;-71
2024/01/10 10:26:29;;;;;;;41.63;20.42;;;-1.80;99.90;;;;;;4968353;28;20027;-72
2024/01/10 10:28:55;;;;;;;42.58;20.08;;;-1.70;99.90;;;;;;4962664;28;20031;-72
2024/01/10 10:31:22;;;;;;;49.28;22.55;;;-1.60;99.90;;;;;;4963677;28;20027;-71
2024/01/10 10:33:52;;;;;;;43.55;20.33;;;-1.60;99.90;;;;;;4959858;28;20035;-71
2024/01/10 10:36:18;;;;;;;45.15;20.70;;;-1.50;99.90;;;;;;4969885;28;20030;-71
2024/01/10 10:38:47;;;;;;;48.75;21.95;;;-1.50;99.90;;;;;;4963608;28;20036;-71
2024/01/10 10:41:14;;;;;;;44.47;21.15;;;-1.40;99.90;;;;;;4964585;28;20122;-71
2024/01/10 10:43:40;;;;;;;45.17;21.60;;;-1.40;99.90;;;;;;4961117;28;20120;-71
2024/01/10 10:46:14;;;;;;;49.22;21.58;;;-1.40;99.90;;;;;;4963435;28;20038;-72
2024/01/10 10:48:40;;;;;;;50.00;21.63;;;-1.40;99.90;;;;;;4965825;28;21171;-72
2024/01/10 10:51:18;;;;;;;45.65;21.40;;;-1.40;99.90;;;;;;4963349;28;20034;-72
2024/01/10 10:53:45;;;;;;;47.22;21.60;;;-1.30;99.90;;;;;;4969407;28;20462;-72
2024/01/10 10:56:12;;;;;;;46.78;21.02;;;-1.20;99.90;;;;;;4965371;28;20030;-73
2024/01/10 10:58:44;;;;;;;47.03;21.38;;;-1.20;99.90;;;;;;4966460;28;20038;-72
2024/01/10 11:01:12;;;;;;;55.05;22.90;;;-1.20;99.90;;;;;;4959639;28;20034;-72
2024/01/10 11:03:42;;;;;;;47.95;21.13;;;-1.20;99.90;;;;;;4963132;28;20038;-72
2024/01/10 11:06:08;;;;;;;49.50;22.63;;;-1.10;99.90;;;;;;4962747;28;20033;-72
2024/01/10 11:08:42;;;;;;;47.95;22.10;;;-1.10;99.90;;;;;;4965561;28;20430;-72
2024/01/10 11:11:34;;;;;;;46.15;20.52;;;-1.10;99.90;;;;;;4959765;28;20216;-75
2024/01/10 11:14:29;;;;;;;41.10;19.73;;;-1.10;99.90;;;;;;4977723;28;20075;-73
2024/01/10 11:17:04;;;;;;;59.55;25.08;;;-1.00;99.90;;;;;;4960720;28;20025;-72
2024/01/10 11:19:43;;;;;;;44.95;21.02;;;-0.90;99.90;;;;;;4966904;28;20204;-72
2024/01/10 11:22:32;;;;;;;46.08;21.10;;;-0.90;99.90;;;;;;4959675;28;20097;-72
2024/01/10 11:24:58;;;;;;;46.58;21.75;;;-0.80;99.90;;;;;;4959626;28;21621;-72
2024/01/10 11:27:26;;;;;;;46.75;20.58;;;-0.80;99.90;;;;;;4963173;28;20027;-72
2024/01/10 11:29:51;;;;;;;47.35;21.58;;;-0.80;99.90;;;;;;4958648;28;20023;-73
2024/01/10 11:32:22;;;;;;;50.90;22.92;;;-0.80;99.90;;;;;;4956694;28;20053;-73
2024/01/10 11:34:58;;;;;;;46.88;21.58;;;-0.80;99.90;;;;;;4967654;28;20077;-71
2024/01/10 11:37:43;;;;;;;50.25;22.60;;;-0.80;99.90;;;;;;4965628;28;20050;-73
2024/01/10 11:40:10;;;;;;;48.70;21.90;;;-0.70;99.90;;;;;;4957034;28;20426;-73
2024/01/10 11:42:43;;;;;;;60.35;27.38;;;-0.70;99.90;;;;;;4961690;28;20413;-73
2024/01/10 11:45:09;;;;;;;48.00;21.75;;;-0.70;99.90;;;;;;4965696;28;20023;-72
2024/01/10 11:47:37;;;;;;;51.97;21.58;;;-0.70;99.90;;;;;;4966060;28;20085;-73
2024/01/10 11:50:07;;;;;;;60.65;23.27;;;-0.70;99.90;;;;;;4964536;28;20034;-73
2024/01/10 11:52:34;;;;;;;48.35;22.63;;;-0.70;99.90;;;;;;4962364;28;20030;-72
2024/01/10 11:55:00;;;;;;;48.72;24.10;;;-0.70;99.90;;;;;;4963550;28;20034;-73
2024/01/10 11:57:31;;;;;;;45.47;21.83;;;-0.70;99.90;;;;;;4953414;28;20383;-72
2024/01/10 12:00:00;;;;;;;44.17;21.30;;;-0.70;99.90;;;;;;4969521;28;20041;-73
2024/01/10 12:02:26;;;;;;;49.75;22.17;;;-0.70;99.90;;;;;;4963164;28;20398;-72
2024/01/10 12:04:53;;;;;;;45.55;20.42;;;-0.60;99.90;;;;;;4960075;28;20023;-72
2024/01/10 12:07:19;;;;;;;53.50;22.55;;;-0.60;99.90;;;;;;4960959;28;20604;-73
2024/01/10 12:09:46;;;;;;;45.63;21.20;;;-0.60;99.90;;;;;;4966336;28;20034;-72
2024/01/10 12:12:15;;;;;;;46.20;21.88;;;-0.50;99.90;;;;;;4971697;28;20026;-73
2024/01/10 12:14:43;;;;;;;43.58;21.27;;;-0.50;99.90;;;;;;4943035;23;1091877;-72
2024/01/10 12:17:08;;;;;;;43.88;22.05;;;-0.40;99.90;;;;;;4987043;28;20030;-71
2024/01/10 12:19:36;;;;;;;43.35;21.52;;;-0.40;99.90;;;;;;4989874;28;20397;-71
2024/01/10 12:22:03;;;;;;;45.30;22.13;;;-0.40;99.90;;;;;;4984991;28;20037;-72
2024/01/10 12:24:29;;;;;;;43.40;19.83;;;-0.30;99.90;;;;;;4993192;28;20037;-72